sensor_id;sensor_type;location;lat;lon;timestamp;P1;durP1;ratioP1;P2;durP2;ratioP2
51312;SDS011;37397;53.226;10.400;2023-02-28T00:00:51;19.80;;;9.82;;
51312;SDS011;37397;53.226;10.400;2023-02-28T00:03:17;16.27;;;8.95;;
51312;SDS011;37397;53.226;10.400;2023-02-28T00:05:44;14.15;;;9.27;;
51312;SDS011;37397;53.226;10.400;2023-02-28T00:08:11;16.92;;;9.13;;
51312;SDS011;37397;53.226;10.400;2023-02-28T00:10:37;16.92;;;9.35;;
51312;SDS011;37397;53.226;10.400;2023-02-28T00:13:05;16.95;;;8.68;;
51312;SDS011;37397;53.226;10.400;2023-02-28T00:15:32;13.73;;;8.35;;
51312;SDS011;37397;53.226;10.400;2023-02-28T00:17:59;20.25;;;9.05;;
51312;SDS011;37397;53.226;10.400;2023-02-28T00:20:26;15.85;;;8.05;;
51312;SDS011;37397;53.226;10.400;2023-02-28T00:22:53;15.77;;;8.23;;
51312;SDS011;37397;53.226;10.400;2023-02-28T00:25:22;12.85;;;7.47;;
51312;SDS011;37397;53.226;10.400;2023-02-28T00:27:50;13.75;;;6.93;;
51312;SDS011;37397;53.226;10.400;2023-02-28T00:30:18;13.93;;;7.28;;
51312;SDS011;37397;53.226;10.400;2023-02-28T00:32:46;13.85;;;7.25;;
51312;SDS011;37397;53.226;10.400;2023-02-28T00:35:13;15.23;;;7.53;;
51312;SDS011;37397;53.226;10.400;2023-02-28T00:37:40;15.73;;;7.55;;
51312;SDS011;37397;53.226;10.400;2023-02-28T00:40:08;15.35;;;7.75;;
51312;SDS011;37397;53.226;10.400;2023-02-28T00:42:36;13.35;;;7.07;;
51312;SDS011;37397;53.226;10.400;2023-02-28T00:45:03;15.73;;;7.03;;
51312;SDS011;37397;53.226;10.400;2023-02-28T00:47:31;16.20;;;7.47;;
51312;SDS011;37397;53.226;10.400;2023-02-28T00:49:58;12.90;;;7.30;;
51312;SDS011;37397;53.226;10.400;2023-02-28T00:52:25;12.85;;;7.05;;
51312;SDS011;37397;53.226;10.400;2023-02-28T00:54:53;16.05;;;7.35;;
51312;SDS011;37397;53.226;10.400;2023-02-28T00:57:20;17.60;;;7.07;;
51312;SDS011;37397;53.226;10.400;2023-02-28T00:59:47;13.85;;;7.30;;
51312;SDS011;37397;53.226;10.400;2023-02-28T01:02:14;14.18;;;7.32;;
51312;SDS011;37397;53.226;10.400;2023-02-28T01:04:40;15.15;;;7.30;;
51312;SDS011;37397;53.226;10.400;2023-02-28T01:07:08;11.98;;;6.90;;
51312;SDS011;37397;53.226;10.400;2023-02-28T01:09:35;12.73;;;6.15;;
51312;SDS011;37397;53.226;10.400;2023-02-28T01:12:01;10.15;;;6.13;;
51312;SDS011;37397;53.226;10.400;2023-02-28T01:14:28;13.55;;;6.63;;
51312;SDS011;37397;53.226;10.400;2023-02-28T01:16:55;15.98;;;7.05;;
51312;SDS011;37397;53.226;10.400;2023-02-28T01:19:24;11.35;;;6.60;;
51312;SDS011;37397;53.226;10.400;2023-02-28T01:21:50;11.02;;;5.82;;
51312;SDS011;37397;53.226;10.400;2023-02-28T01:24:17;14.27;;;6.40;;
51312;SDS011;37397;53.226;10.400;2023-02-28T01:26:43;12.00;;;6.43;;
51312;SDS011;37397;53.226;10.400;2023-02-28T01:29:10;10.65;;;5.57;;
51312;SDS011;37397;53.226;10.400;2023-02-28T01:31:36;12.68;;;6.50;;
51312;SDS011;37397;53.226;10.400;2023-02-28T01:34:03;13.57;;;6.68;;
51312;SDS011;37397;53.226;10.400;2023-02-28T01:36:30;9.45;;;5.82;;
51312;SDS011;37397;53.226;10.400;2023-02-28T01:38:56;13.20;;;5.68;;
51312;SDS011;37397;53.226;10.400;2023-02-28T01:41:25;11.10;;;5.57;;
51312;SDS011;37397;53.226;10.400;2023-02-28T01:43:57;12.25;;;5.90;;
51312;SDS011;37397;53.226;10.400;2023-02-28T01:46:50;11.07;;;5.38;;
51312;SDS011;37397;53.226;10.400;2023-02-28T01:49:16;11.90;;;5.50;;
51312;SDS011;37397;53.226;10.400;2023-02-28T01:51:52;11.98;;;5.32;;
51312;SDS011;37397;53.226;10.400;2023-02-28T01:54:25;11.93;;;5.50;;
51312;SDS011;37397;53.226;10.400;2023-02-28T01:57:03;9.65;;;5.05;;
51312;SDS011;37397;53.226;10.400;2023-02-28T01:59:37;10.02;;;5.20;;
51312;SDS011;37397;53.226;10.400;2023-02-28T02:02:12;12.27;;;5.53;;
51312;SDS011;37397;53.226;10.400;2023-02-28T02:04:41;9.27;;;5.38;;
51312;SDS011;37397;53.226;10.400;2023-02-28T02:07:16;10.70;;;5.32;;
51312;SDS011;37397;53.226;10.400;2023-02-28T02:09:43;9.70;;;4.82;;
51312;SDS011;37397;53.226;10.400;2023-02-28T02:12:18;10.10;;;5.07;;
51312;SDS011;37397;53.226;10.400;2023-02-28T02:17:46;9.93;;;5.28;;
51312;SDS011;37397;53.226;10.400;2023-02-28T02:25:58;12.20;;;5.78;;
51312;SDS011;37397;53.226;10.400;2023-02-28T02:29:07;12.10;;;6.82;;
51312;SDS011;37397;53.226;10.400;2023-02-28T02:34:51;10.50;;;5.22;;
51312;SDS011;37397;53.226;10.400;2023-02-28T02:37:43;12.43;;;6.00;;
51312;SDS011;37397;53.226;10.400;2023-02-28T02:46:20;12.40;;;5.78;;
51312;SDS011;37397;53.226;10.400;2023-02-28T02:48:51;9.23;;;4.97;;
51312;SDS011;37397;53.226;10.400;2023-02-28T02:51:22;15.07;;;5.57;;
51312;SDS011;37397;53.226;10.400;2023-02-28T02:53:56;11.40;;;5.35;;
51312;SDS011;37397;53.226;10.400;2023-02-28T02:56:45;10.70;;;5.65;;
51312;SDS011;37397;53.226;10.400;2023-02-28T02:59:16;12.57;;;5.88;;
51312;SDS011;37397;53.226;10.400;2023-02-28T03:01:48;13.57;;;5.57;;
51312;SDS011;37397;53.226;10.400;2023-02-28T03:04:19;10.27;;;5.25;;
51312;SDS011;37397;53.226;10.400;2023-02-28T03:06:50;11.85;;;5.80;;
51312;SDS011;37397;53.226;10.400;2023-02-28T03:09:21;11.80;;;5.53;;
51312;SDS011;37397;53.226;10.400;2023-02-28T03:11:48;11.70;;;5.47;;
51312;SDS011;37397;53.226;10.400;2023-02-28T03:16:52;14.00;;;6.70;;
51312;SDS011;37397;53.226;10.400;2023-02-28T03:19:24;10.50;;;5.55;;
51312;SDS011;37397;53.226;10.400;2023-02-28T03:24:54;14.43;;;6.22;;
51312;SDS011;37397;53.226;10.400;2023-02-28T03:27:35;10.75;;;6.00;;
51312;SDS011;37397;53.226;10.400;2023-02-28T03:30:15;11.88;;;5.90;;
51312;SDS011;37397;53.226;10.400;2023-02-28T03:32:57;11.20;;;5.70;;
51312;SDS011;37397;53.226;10.400;2023-02-28T03:35:32;13.32;;;6.25;;
51312;SDS011;37397;53.226;10.400;2023-02-28T03:40:48;12.48;;;6.22;;
51312;SDS011;37397;53.226;10.400;2023-02-28T03:43:19;12.43;;;6.10;;
51312;SDS011;37397;53.226;10.400;2023-02-28T03:45:52;11.10;;;5.85;;
51312;SDS011;37397;53.226;10.400;2023-02-28T03:48:23;13.02;;;5.95;;
51312;SDS011;37397;53.226;10.400;2023-02-28T03:50:57;12.50;;;5.70;;
51312;SDS011;37397;53.226;10.400;2023-02-28T03:53:33;12.40;;;5.90;;
51312;SDS011;37397;53.226;10.400;2023-02-28T03:56:05;11.40;;;5.47;;
51312;SDS011;37397;53.226;10.400;2023-02-28T04:04:02;12.30;;;6.10;;
51312;SDS011;37397;53.226;10.400;2023-02-28T04:06:30;11.65;;;5.93;;
51312;SDS011;37397;53.226;10.400;2023-02-28T04:08:58;13.38;;;6.20;;
51312;SDS011;37397;53.226;10.400;2023-02-28T04:14:01;12.00;;;6.40;;
51312;SDS011;37397;53.226;10.400;2023-02-28T04:16:30;11.63;;;6.25;;
51312;SDS011;37397;53.226;10.400;2023-02-28T04:19:02;12.10;;;6.00;;
51312;SDS011;37397;53.226;10.400;2023-02-28T04:21:31;12.60;;;6.10;;
51312;SDS011;37397;53.226;10.400;2023-02-28T04:24:00;14.20;;;6.13;;
51312;SDS011;37397;53.226;10.400;2023-02-28T04:26:30;11.60;;;6.57;;
51312;SDS011;37397;53.226;10.400;2023-02-28T04:28:58;9.63;;;5.65;;
51312;SDS011;37397;53.226;10.400;2023-02-28T04:31:25;14.02;;;6.03;;
51312;SDS011;37397;53.226;10.400;2023-02-28T04:33:53;12.00;;;6.13;;
51312;SDS011;37397;53.226;10.400;2023-02-28T04:36:20;14.00;;;6.07;;
51312;SDS011;37397;53.226;10.400;2023-02-28T04:38:46;11.07;;;6.32;;
51312;SDS011;37397;53.226;10.400;2023-02-28T04:41:13;10.60;;;5.47;;
51312;SDS011;37397;53.226;10.400;2023-02-28T04:43:39;14.05;;;6.55;;
51312;SDS011;37397;53.226;10.400;2023-02-28T04:46:06;12.32;;;6.25;;
51312;SDS011;37397;53.226;10.400;2023-02-28T04:48:34;11.43;;;6.35;;
51312;SDS011;37397;53.226;10.400;2023-02-28T04:51:02;9.60;;;5.78;;
51312;SDS011;37397;53.226;10.400;2023-02-28T04:53:34;10.55;;;6.00;;
51312;SDS011;37397;53.226;10.400;2023-02-28T04:56:02;10.38;;;5.50;;
51312;SDS011;37397;53.226;10.400;2023-02-28T04:58:29;11.48;;;5.60;;
51312;SDS011;37397;53.226;10.400;2023-02-28T05:01:02;10.75;;;6.00;;
51312;SDS011;37397;53.226;10.400;2023-02-28T05:03:30;11.13;;;5.40;;
51312;SDS011;37397;53.226;10.400;2023-02-28T05:05:56;10.55;;;6.03;;
51312;SDS011;37397;53.226;10.400;2023-02-28T05:08:23;12.30;;;5.88;;
51312;SDS011;37397;53.226;10.400;2023-02-28T05:10:49;11.70;;;5.65;;
51312;SDS011;37397;53.226;10.400;2023-02-28T05:13:16;11.55;;;5.05;;
51312;SDS011;37397;53.226;10.400;2023-02-28T05:15:43;12.02;;;5.68;;
51312;SDS011;37397;53.226;10.400;2023-02-28T05:18:09;13.27;;;6.35;;
51312;SDS011;37397;53.226;10.400;2023-02-28T05:20:36;11.77;;;5.63;;
51312;SDS011;37397;53.226;10.400;2023-02-28T05:23:03;11.63;;;5.68;;
51312;SDS011;37397;53.226;10.400;2023-02-28T05:25:30;11.68;;;6.10;;
51312;SDS011;37397;53.226;10.400;2023-02-28T05:27:56;13.23;;;5.57;;
51312;SDS011;37397;53.226;10.400;2023-02-28T05:30:23;11.90;;;5.57;;
51312;SDS011;37397;53.226;10.400;2023-02-28T05:32:50;12.35;;;5.93;;
51312;SDS011;37397;53.226;10.400;2023-02-28T05:35:17;12.70;;;6.28;;
51312;SDS011;37397;53.226;10.400;2023-02-28T05:37:44;14.98;;;6.95;;
51312;SDS011;37397;53.226;10.400;2023-02-28T05:40:11;12.25;;;6.15;;
51312;SDS011;37397;53.226;10.400;2023-02-28T05:42:38;12.48;;;6.03;;
51312;SDS011;37397;53.226;10.400;2023-02-28T05:45:05;11.95;;;5.82;;
51312;SDS011;37397;53.226;10.400;2023-02-28T05:47:33;12.77;;;6.22;;
51312;SDS011;37397;53.226;10.400;2023-02-28T05:50:00;12.25;;;6.20;;
51312;SDS011;37397;53.226;10.400;2023-02-28T05:52:28;13.63;;;6.13;;
51312;SDS011;37397;53.226;10.400;2023-02-28T05:54:56;10.77;;;5.72;;
51312;SDS011;37397;53.226;10.400;2023-02-28T05:57:22;10.48;;;5.93;;
51312;SDS011;37397;53.226;10.400;2023-02-28T05:59:50;11.38;;;6.38;;
51312;SDS011;37397;53.226;10.400;2023-02-28T06:02:17;12.25;;;6.40;;
51312;SDS011;37397;53.226;10.400;2023-02-28T06:04:44;10.85;;;6.30;;
51312;SDS011;37397;53.226;10.400;2023-02-28T06:07:11;12.13;;;5.30;;
51312;SDS011;37397;53.226;10.400;2023-02-28T06:09:38;12.63;;;5.78;;
51312;SDS011;37397;53.226;10.400;2023-02-28T06:12:05;11.38;;;5.68;;
51312;SDS011;37397;53.226;10.400;2023-02-28T06:14:33;11.07;;;5.57;;
51312;SDS011;37397;53.226;10.400;2023-02-28T06:17:01;11.95;;;5.97;;
51312;SDS011;37397;53.226;10.400;2023-02-28T06:19:29;13.40;;;5.85;;
51312;SDS011;37397;53.226;10.400;2023-02-28T06:21:56;10.80;;;5.60;;
51312;SDS011;37397;53.226;10.400;2023-02-28T06:24:24;10.27;;;5.40;;
51312;SDS011;37397;53.226;10.400;2023-02-28T06:26:54;10.88;;;5.75;;
51312;SDS011;37397;53.226;10.400;2023-02-28T06:29:21;10.05;;;5.22;;
51312;SDS011;37397;53.226;10.400;2023-02-28T06:31:47;10.77;;;5.30;;
51312;SDS011;37397;53.226;10.400;2023-02-28T06:34:14;11.13;;;5.13;;
51312;SDS011;37397;53.226;10.400;2023-02-28T06:36:41;9.63;;;5.45;;
51312;SDS011;37397;53.226;10.400;2023-02-28T06:39:09;11.73;;;5.63;;
51312;SDS011;37397;53.226;10.400;2023-02-28T06:41:36;11.18;;;5.68;;
51312;SDS011;37397;53.226;10.400;2023-02-28T06:44:19;9.82;;;5.35;;
51312;SDS011;37397;53.226;10.400;2023-02-28T06:46:46;11.90;;;5.90;;
51312;SDS011;37397;53.226;10.400;2023-02-28T06:49:13;11.25;;;5.45;;
51312;SDS011;37397;53.226;10.400;2023-02-28T06:51:41;11.05;;;5.40;;
51312;SDS011;37397;53.226;10.400;2023-02-28T06:54:11;11.30;;;6.00;;
51312;SDS011;37397;53.226;10.400;2023-02-28T06:56:39;12.70;;;6.28;;
51312;SDS011;37397;53.226;10.400;2023-02-28T06:59:05;11.55;;;5.93;;
51312;SDS011;37397;53.226;10.400;2023-02-28T07:01:32;12.43;;;6.20;;
51312;SDS011;37397;53.226;10.400;2023-02-28T07:03:59;11.40;;;6.22;;
51312;SDS011;37397;53.226;10.400;2023-02-28T07:06:27;11.32;;;6.35;;
51312;SDS011;37397;53.226;10.400;2023-02-28T07:08:54;10.15;;;5.63;;
51312;SDS011;37397;53.226;10.400;2023-02-28T07:11:21;12.05;;;5.93;;
51312;SDS011;37397;53.226;10.400;2023-02-28T07:13:52;13.43;;;6.80;;
51312;SDS011;37397;53.226;10.400;2023-02-28T07:16:19;12.10;;;6.50;;
51312;SDS011;37397;53.226;10.400;2023-02-28T07:18:45;10.90;;;6.35;;
51312;SDS011;37397;53.226;10.400;2023-02-28T07:21:12;11.00;;;6.63;;
51312;SDS011;37397;53.226;10.400;2023-02-28T07:23:38;10.40;;;5.90;;
51312;SDS011;37397;53.226;10.400;2023-02-28T07:26:05;12.95;;;6.82;;
51312;SDS011;37397;53.226;10.400;2023-02-28T07:28:33;12.68;;;6.53;;
51312;SDS011;37397;53.226;10.400;2023-02-28T07:31:03;12.95;;;6.85;;
51312;SDS011;37397;53.226;10.400;2023-02-28T07:33:31;12.57;;;6.35;;
51312;SDS011;37397;53.226;10.400;2023-02-28T07:36:05;12.43;;;6.60;;
51312;SDS011;37397;53.226;10.400;2023-02-28T07:38:36;11.98;;;6.70;;
51312;SDS011;37397;53.226;10.400;2023-02-28T07:41:03;15.82;;;7.00;;
51312;SDS011;37397;53.226;10.400;2023-02-28T07:43:30;10.65;;;6.43;;
51312;SDS011;37397;53.226;10.400;2023-02-28T07:46:05;13.95;;;7.32;;
51312;SDS011;37397;53.226;10.400;2023-02-28T07:48:37;9.68;;;5.55;;
51312;SDS011;37397;53.226;10.400;2023-02-28T07:51:04;12.75;;;6.07;;
51312;SDS011;37397;53.226;10.400;2023-02-28T07:53:30;10.95;;;5.65;;
51312;SDS011;37397;53.226;10.400;2023-02-28T07:55:58;12.45;;;6.25;;
51312;SDS011;37397;53.226;10.400;2023-02-28T07:58:25;9.73;;;5.75;;
51312;SDS011;37397;53.226;10.400;2023-02-28T08:00:53;13.15;;;6.13;;
51312;SDS011;37397;53.226;10.400;2023-02-28T08:03:21;11.15;;;6.38;;
51312;SDS011;37397;53.226;10.400;2023-02-28T08:05:48;10.10;;;5.38;;
51312;SDS011;37397;53.226;10.400;2023-02-28T08:08:15;10.68;;;5.60;;
51312;SDS011;37397;53.226;10.400;2023-02-28T08:10:42;10.80;;;5.72;;
51312;SDS011;37397;53.226;10.400;2023-02-28T08:13:09;10.85;;;5.65;;
51312;SDS011;37397;53.226;10.400;2023-02-28T08:15:36;9.90;;;5.25;;
51312;SDS011;37397;53.226;10.400;2023-02-28T08:18:02;12.13;;;5.82;;
51312;SDS011;37397;53.226;10.400;2023-02-28T08:20:29;11.52;;;5.50;;
51312;SDS011;37397;53.226;10.400;2023-02-28T08:22:56;12.20;;;6.00;;
51312;SDS011;37397;53.226;10.400;2023-02-28T08:25:23;11.88;;;5.88;;
51312;SDS011;37397;53.226;10.400;2023-02-28T08:27:50;10.38;;;5.22;;
51312;SDS011;37397;53.226;10.400;2023-02-28T08:30:18;12.43;;;5.45;;
51312;SDS011;37397;53.226;10.400;2023-02-28T08:32:45;13.13;;;5.43;;
51312;SDS011;37397;53.226;10.400;2023-02-28T08:35:11;10.60;;;5.55;;
51312;SDS011;37397;53.226;10.400;2023-02-28T08:37:38;10.35;;;5.40;;
51312;SDS011;37397;53.226;10.400;2023-02-28T08:40:04;10.10;;;5.38;;
51312;SDS011;37397;53.226;10.400;2023-02-28T08:42:32;9.75;;;5.22;;
51312;SDS011;37397;53.226;10.400;2023-02-28T08:44:59;10.20;;;4.80;;
51312;SDS011;37397;53.226;10.400;2023-02-28T08:47:25;10.93;;;5.03;;
51312;SDS011;37397;53.226;10.400;2023-02-28T08:49:52;8.45;;;4.90;;
51312;SDS011;37397;53.226;10.400;2023-02-28T08:52:18;8.95;;;5.35;;
51312;SDS011;37397;53.226;10.400;2023-02-28T08:54:45;9.77;;;4.95;;
51312;SDS011;37397;53.226;10.400;2023-02-28T08:57:11;9.52;;;4.75;;
51312;SDS011;37397;53.226;10.400;2023-02-28T08:59:38;9.52;;;4.65;;
51312;SDS011;37397;53.226;10.400;2023-02-28T09:02:04;9.50;;;4.90;;
51312;SDS011;37397;53.226;10.400;2023-02-28T09:04:31;8.48;;;4.70;;
51312;SDS011;37397;53.226;10.400;2023-02-28T09:06:57;10.25;;;4.30;;
51312;SDS011;37397;53.226;10.400;2023-02-28T09:09:24;9.93;;;4.93;;
51312;SDS011;37397;53.226;10.400;2023-02-28T09:11:50;8.20;;;5.10;;
51312;SDS011;37397;53.226;10.400;2023-02-28T09:14:17;9.27;;;4.95;;
51312;SDS011;37397;53.226;10.400;2023-02-28T09:16:44;9.70;;;4.53;;
51312;SDS011;37397;53.226;10.400;2023-02-28T09:19:11;10.68;;;5.28;;
51312;SDS011;37397;53.226;10.400;2023-02-28T09:21:39;10.00;;;4.80;;
51312;SDS011;37397;53.226;10.400;2023-02-28T09:24:06;7.93;;;4.80;;
51312;SDS011;37397;53.226;10.400;2023-02-28T09:26:33;9.75;;;4.63;;
51312;SDS011;37397;53.226;10.400;2023-02-28T09:29:12;9.18;;;4.78;;
51312;SDS011;37397;53.226;10.400;2023-02-28T09:31:39;9.75;;;5.10;;
51312;SDS011;37397;53.226;10.400;2023-02-28T09:34:06;7.97;;;4.10;;
51312;SDS011;37397;53.226;10.400;2023-02-28T09:36:33;9.48;;;4.60;;
51312;SDS011;37397;53.226;10.400;2023-02-28T09:39:11;8.85;;;4.35;;
51312;SDS011;37397;53.226;10.400;2023-02-28T09:41:40;7.82;;;4.07;;
51312;SDS011;37397;53.226;10.400;2023-02-28T09:44:27;8.57;;;4.40;;
51312;SDS011;37397;53.226;10.400;2023-02-28T09:47:18;9.13;;;4.10;;
51312;SDS011;37397;53.226;10.400;2023-02-28T09:49:53;9.05;;;4.43;;
51312;SDS011;37397;53.226;10.400;2023-02-28T09:52:29;9.20;;;3.70;;
51312;SDS011;37397;53.226;10.400;2023-02-28T09:55:00;10.50;;;3.70;;
51312;SDS011;37397;53.226;10.400;2023-02-28T09:57:47;7.00;;;3.42;;
51312;SDS011;37397;53.226;10.400;2023-02-28T10:08:56;5.97;;;2.95;;
51312;SDS011;37397;53.226;10.400;2023-02-28T10:11:28;6.50;;;3.00;;
51312;SDS011;37397;53.226;10.400;2023-02-28T10:14:01;5.55;;;2.95;;
51312;SDS011;37397;53.226;10.400;2023-02-28T10:16:37;5.35;;;2.58;;
51312;SDS011;37397;53.226;10.400;2023-02-28T10:22:03;5.65;;;2.30;;
51312;SDS011;37397;53.226;10.400;2023-02-28T10:24:39;6.20;;;2.20;;
51312;SDS011;37397;53.226;10.400;2023-02-28T10:27:16;4.40;;;2.40;;
51312;SDS011;37397;53.226;10.400;2023-02-28T10:29:47;6.07;;;2.30;;
51312;SDS011;37397;53.226;10.400;2023-02-28T10:32:17;4.00;;;2.10;;
51312;SDS011;37397;53.226;10.400;2023-02-28T10:34:49;4.90;;;2.05;;
51312;SDS011;37397;53.226;10.400;2023-02-28T10:37:20;5.78;;;2.42;;
51312;SDS011;37397;53.226;10.400;2023-02-28T10:39:47;4.10;;;2.50;;
51312;SDS011;37397;53.226;10.400;2023-02-28T10:45:35;6.35;;;2.78;;
51312;SDS011;37397;53.226;10.400;2023-02-28T10:50:42;10.82;;;4.40;;
51312;SDS011;37397;53.226;10.400;2023-02-28T10:56:36;7.72;;;3.72;;
51312;SDS011;37397;53.226;10.400;2023-02-28T11:01:21;9.18;;;4.05;;
51312;SDS011;37397;53.226;10.400;2023-02-28T11:03:50;8.88;;;4.07;;
51312;SDS011;37397;53.226;10.400;2023-02-28T11:06:22;9.02;;;4.20;;
51312;SDS011;37397;53.226;10.400;2023-02-28T11:08:52;13.30;;;4.53;;
51312;SDS011;37397;53.226;10.400;2023-02-28T11:11:30;8.13;;;3.83;;
51312;SDS011;37397;53.226;10.400;2023-02-28T11:14:16;6.47;;;3.35;;
51312;SDS011;37397;53.226;10.400;2023-02-28T11:16:47;6.35;;;3.28;;
51312;SDS011;37397;53.226;10.400;2023-02-28T11:19:35;5.63;;;3.38;;
51312;SDS011;37397;53.226;10.400;2023-02-28T11:22:06;6.47;;;3.05;;
51312;SDS011;37397;53.226;10.400;2023-02-28T11:24:33;5.47;;;2.92;;
51312;SDS011;37397;53.226;10.400;2023-02-28T11:27:03;4.95;;;2.83;;
51312;SDS011;37397;53.226;10.400;2023-02-28T11:29:30;5.80;;;2.70;;
51312;SDS011;37397;53.226;10.400;2023-02-28T11:32:03;7.00;;;2.70;;
51312;SDS011;37397;53.226;10.400;2023-02-28T11:34:36;5.07;;;2.55;;
51312;SDS011;37397;53.226;10.400;2023-02-28T11:37:04;4.28;;;2.03;;
51312;SDS011;37397;53.226;10.400;2023-02-28T11:39:36;5.18;;;2.50;;
51312;SDS011;37397;53.226;10.400;2023-02-28T11:45:02;4.03;;;2.40;;
51312;SDS011;37397;53.226;10.400;2023-02-28T11:48:05;5.97;;;1.95;;
51312;SDS011;37397;53.226;10.400;2023-02-28T11:53:54;4.90;;;2.00;;
51312;SDS011;37397;53.226;10.400;2023-02-28T11:56:38;5.68;;;2.35;;
51312;SDS011;37397;53.226;10.400;2023-02-28T12:03:10;3.60;;;1.85;;
51312;SDS011;37397;53.226;10.400;2023-02-28T12:08:18;3.38;;;1.80;;
51312;SDS011;37397;53.226;10.400;2023-02-28T12:10:59;4.07;;;1.88;;
51312;SDS011;37397;53.226;10.400;2023-02-28T12:19:21;3.42;;;1.67;;
51312;SDS011;37397;53.226;10.400;2023-02-28T12:22:12;3.50;;;1.63;;
51312;SDS011;37397;53.226;10.400;2023-02-28T12:24:49;5.35;;;2.15;;
51312;SDS011;37397;53.226;10.400;2023-02-28T12:27:47;5.07;;;1.88;;
51312;SDS011;37397;53.226;10.400;2023-02-28T12:30:19;6.40;;;2.05;;
51312;SDS011;37397;53.226;10.400;2023-02-28T12:32:51;5.17;;;1.90;;
51312;SDS011;37397;53.226;10.400;2023-02-28T12:35:32;5.03;;;1.90;;
51312;SDS011;37397;53.226;10.400;2023-02-28T12:38:09;3.80;;;1.75;;
51312;SDS011;37397;53.226;10.400;2023-02-28T12:40:42;7.53;;;2.67;;
51312;SDS011;37397;53.226;10.400;2023-02-28T12:43:14;5.80;;;1.80;;
51312;SDS011;37397;53.226;10.400;2023-02-28T12:45:47;5.45;;;2.17;;
51312;SDS011;37397;53.226;10.400;2023-02-28T12:48:43;5.47;;;2.35;;
51312;SDS011;37397;53.226;10.400;2023-02-28T12:51:12;4.07;;;2.00;;
51312;SDS011;37397;53.226;10.400;2023-02-28T12:53:50;3.15;;;1.65;;
51312;SDS011;37397;53.226;10.400;2023-02-28T12:59:13;4.00;;;1.88;;
51312;SDS011;37397;53.226;10.400;2023-02-28T13:01:56;3.88;;;2.00;;
51312;SDS011;37397;53.226;10.400;2023-02-28T13:10:10;5.68;;;2.10;;
51312;SDS011;37397;53.226;10.400;2023-02-28T13:12:37;5.68;;;1.77;;
51312;SDS011;37397;53.226;10.400;2023-02-28T13:15:32;4.63;;;2.38;;
51312;SDS011;37397;53.226;10.400;2023-02-28T13:18:04;6.20;;;2.47;;
51312;SDS011;37397;53.226;10.400;2023-02-28T13:20:34;5.78;;;2.22;;
51312;SDS011;37397;53.226;10.400;2023-02-28T13:23:02;4.03;;;2.10;;
51312;SDS011;37397;53.226;10.400;2023-02-28T13:28:01;4.63;;;2.35;;
51312;SDS011;37397;53.226;10.400;2023-02-28T13:36:29;3.83;;;2.17;;
51312;SDS011;37397;53.226;10.400;2023-02-28T13:44:09;4.30;;;2.30;;
51312;SDS011;37397;53.226;10.400;2023-02-28T13:51:51;5.85;;;2.42;;
51312;SDS011;37397;53.226;10.400;2023-02-28T13:57:07;5.43;;;2.72;;
51312;SDS011;37397;53.226;10.400;2023-02-28T13:59:39;4.78;;;2.28;;
51312;SDS011;37397;53.226;10.400;2023-02-28T14:05:15;5.05;;;2.35;;
51312;SDS011;37397;53.226;10.400;2023-02-28T14:07:48;7.22;;;2.83;;
51312;SDS011;37397;53.226;10.400;2023-02-28T14:10:37;7.95;;;2.75;;
51312;SDS011;37397;53.226;10.400;2023-02-28T14:15:41;5.88;;;2.85;;
51312;SDS011;37397;53.226;10.400;2023-02-28T14:18:20;5.40;;;2.50;;
51312;SDS011;37397;53.226;10.400;2023-02-28T14:21:12;4.57;;;2.40;;
51312;SDS011;37397;53.226;10.400;2023-02-28T14:30:10;6.72;;;2.42;;
51312;SDS011;37397;53.226;10.400;2023-02-28T14:32:49;7.90;;;2.80;;
51312;SDS011;37397;53.226;10.400;2023-02-28T14:38:20;4.72;;;2.17;;
51312;SDS011;37397;53.226;10.400;2023-02-28T14:40:51;4.47;;;1.83;;
51312;SDS011;37397;53.226;10.400;2023-02-28T14:43:20;5.88;;;2.55;;
51312;SDS011;37397;53.226;10.400;2023-02-28T14:45:50;4.28;;;2.10;;
51312;SDS011;37397;53.226;10.400;2023-02-28T14:48:20;5.13;;;2.15;;
51312;SDS011;37397;53.226;10.400;2023-02-28T14:50:52;4.82;;;2.08;;
51312;SDS011;37397;53.226;10.400;2023-02-28T14:53:21;4.35;;;1.80;;
51312;SDS011;37397;53.226;10.400;2023-02-28T14:55:49;4.72;;;1.98;;
51312;SDS011;37397;53.226;10.400;2023-02-28T14:58:22;4.28;;;2.00;;
51312;SDS011;37397;53.226;10.400;2023-02-28T15:00:52;4.03;;;2.10;;
51312;SDS011;37397;53.226;10.400;2023-02-28T15:03:27;4.25;;;2.10;;
51312;SDS011;37397;53.226;10.400;2023-02-28T15:06:04;7.60;;;2.40;;
51312;SDS011;37397;53.226;10.400;2023-02-28T15:08:32;6.35;;;2.33;;
51312;SDS011;37397;53.226;10.400;2023-02-28T15:11:03;6.38;;;2.55;;
51312;SDS011;37397;53.226;10.400;2023-02-28T15:13:43;6.68;;;2.05;;
51312;SDS011;37397;53.226;10.400;2023-02-28T15:18:49;5.90;;;2.25;;
51312;SDS011;37397;53.226;10.400;2023-02-28T15:21:20;6.70;;;2.20;;
51312;SDS011;37397;53.226;10.400;2023-02-28T15:23:51;6.63;;;1.83;;
51312;SDS011;37397;53.226;10.400;2023-02-28T15:26:39;4.72;;;2.42;;
51312;SDS011;37397;53.226;10.400;2023-02-28T15:29:16;3.50;;;1.63;;
51312;SDS011;37397;53.226;10.400;2023-02-28T15:31:51;4.70;;;1.88;;
51312;SDS011;37397;53.226;10.400;2023-02-28T15:34:33;5.03;;;2.30;;
51312;SDS011;37397;53.226;10.400;2023-02-28T15:37:26;4.10;;;2.13;;
51312;SDS011;37397;53.226;10.400;2023-02-28T15:39:53;3.72;;;2.10;;
51312;SDS011;37397;53.226;10.400;2023-02-28T15:42:22;3.97;;;1.90;;
51312;SDS011;37397;53.226;10.400;2023-02-28T15:44:53;3.95;;;1.92;;
51312;SDS011;37397;53.226;10.400;2023-02-28T15:47:20;4.95;;;2.08;;
51312;SDS011;37397;53.226;10.400;2023-02-28T15:49:49;4.13;;;2.03;;
51312;SDS011;37397;53.226;10.400;2023-02-28T15:52:21;3.85;;;2.08;;
51312;SDS011;37397;53.226;10.400;2023-02-28T15:54:52;3.90;;;1.80;;
51312;SDS011;37397;53.226;10.400;2023-02-28T15:57:22;3.70;;;2.28;;
51312;SDS011;37397;53.226;10.400;2023-02-28T15:59:54;4.20;;;1.83;;
51312;SDS011;37397;53.226;10.400;2023-02-28T16:02:30;6.32;;;2.00;;
51312;SDS011;37397;53.226;10.400;2023-02-28T16:07:34;3.10;;;1.85;;
51312;SDS011;37397;53.226;10.400;2023-02-28T16:10:03;3.30;;;1.80;;
51312;SDS011;37397;53.226;10.400;2023-02-28T16:12:31;3.00;;;1.90;;
51312;SDS011;37397;53.226;10.400;2023-02-28T16:15:01;3.05;;;1.83;;
51312;SDS011;37397;53.226;10.400;2023-02-28T16:17:37;4.25;;;2.13;;
51312;SDS011;37397;53.226;10.400;2023-02-28T16:20:15;5.25;;;2.00;;
51312;SDS011;37397;53.226;10.400;2023-02-28T16:23:02;5.00;;;2.10;;
51312;SDS011;37397;53.226;10.400;2023-02-28T16:25:33;4.55;;;2.17;;
51312;SDS011;37397;53.226;10.400;2023-02-28T16:28:01;3.10;;;1.95;;
51312;SDS011;37397;53.226;10.400;2023-02-28T16:30:29;2.80;;;1.90;;
51312;SDS011;37397;53.226;10.400;2023-02-28T16:32:59;5.30;;;1.95;;
51312;SDS011;37397;53.226;10.400;2023-02-28T16:35:25;3.65;;;1.70;;
51312;SDS011;37397;53.226;10.400;2023-02-28T16:37:52;5.57;;;2.42;;
51312;SDS011;37397;53.226;10.400;2023-02-28T16:40:21;3.67;;;2.03;;
51312;SDS011;37397;53.226;10.400;2023-02-28T16:42:49;6.13;;;2.70;;
51312;SDS011;37397;53.226;10.400;2023-02-28T16:45:20;7.00;;;2.90;;
51312;SDS011;37397;53.226;10.400;2023-02-28T16:47:49;5.85;;;2.88;;
51312;SDS011;37397;53.226;10.400;2023-02-28T16:50:19;5.38;;;2.35;;
51312;SDS011;37397;53.226;10.400;2023-02-28T16:52:48;8.00;;;3.25;;
51312;SDS011;37397;53.226;10.400;2023-02-28T16:55:15;6.45;;;2.60;;